Time;durP1;ratioP1;P1;durP2;ratioP2;P2;SDS_P1;SDS_P2;PMS_P1;PMS_P2;Temp;Humidity;BMP_temperature;BMP_pressure;BME280_temperature;BME280_humidity;BME280_pressure;Samples;Min_cycle;Max_cycle;Signal;HPM_P1;HPM_P2
2020/12/15 00:01:23;;;;;;;7.70;6.90;;;;;;;14.15;51.85;100475.16;5023614;27;107543;-59
2020/12/15 00:03:49;;;;;;;7.38;6.68;;;;;;;14.14;51.74;100486.25;5024629;27;129137;-59
2020/12/15 00:06:17;;;;;;;7.63;6.80;;;;;;;14.14;51.58;100484.34;5021746;27;97762;-59
2020/12/15 00:08:43;;;;;;;7.68;6.70;;;;;;;14.18;51.62;100481.88;5004122;27;128123;-57
2020/12/15 00:11:15;;;;;;;6.97;6.28;;;;;;;14.18;52.05;100488.09;5004841;27;117119;-58
2020/12/15 00:13:42;;;;;;;8.27;6.80;;;;;;;14.21;51.49;100490.25;5005063;27;103869;-58
2020/12/15 00:16:08;;;;;;;7.75;6.60;;;;;;;14.21;51.75;100490.25;5001826;27;105098;-59
2020/12/15 00:18:34;;;;;;;7.40;6.70;;;;;;;14.21;51.59;100492.94;5024623;27;127388;-58
2020/12/15 00:21:00;;;;;;;7.18;6.47;;;;;;;14.18;51.32;100488.09;5024076;27;126989;-58
2020/12/15 00:23:26;;;;;;;7.85;7.05;;;;;;;14.18;51.59;100492.72;5011722;27;127704;-58
2020/12/15 00:25:52;;;;;;;7.40;6.57;;;;;;;14.19;51.58;100486.22;5003596;27;118791;-59
2020/12/15 00:28:18;;;;;;;7.90;7.07;;;;;;;14.21;51.67;100482.09;5013468;27;128199;-58
2020/12/15 00:30:44;;;;;;;7.30;6.60;;;;;;;14.22;51.49;100480.19;5024745;27;107542;-59
2020/12/15 00:33:10;;;;;;;7.45;6.65;;;;;;;14.18;51.51;100479.97;5023783;27;128316;-58
2020/12/15 00:35:36;;;;;;;7.20;6.50;;;;;;;14.21;51.58;100484.81;5024659;27;115714;-59
2020/12/15 00:38:03;;;;;;;7.68;6.93;;;;;;;14.21;51.45;100476.69;5024355;27;128904;-59
2020/12/15 00:40:29;;;;;;;7.82;6.47;;;;;;;14.22;51.29;100472.06;5021381;27;128325;-58
2020/12/15 00:42:58;;;;;;;7.00;6.30;;;;;;;14.23;51.53;100473.69;5021384;27;126800;-58
2020/12/15 00:45:24;;;;;;;7.85;6.28;;;;;;;14.22;51.31;100472.06;5019700;27;97735;-57
2020/12/15 00:47:51;;;;;;;7.28;6.57;;;;;;;14.22;51.31;100466.66;5004702;27;125714;-58
2020/12/15 00:50:17;;;;;;;7.13;6.43;;;;;;;14.21;51.34;100459.63;5022672;27;115918;-59
2020/12/15 00:52:46;;;;;;;7.13;6.43;;;;;;;14.21;51.84;100456.91;5021683;27;127929;-59
2020/12/15 00:55:12;;;;;;;7.03;6.32;;;;;;;14.21;51.67;100449.56;5021477;27;103151;-58
2020/12/15 00:57:38;;;;;;;7.10;6.40;;;;;;;14.21;51.58;100443.34;5003817;27;127907;-57
2020/12/15 01:00:10;;;;;;;6.75;6.07;;;;;;;14.18;51.70;100442.03;5003771;27;111253;-58
2020/12/15 01:02:36;;;;;;;6.80;6.10;;;;;;;14.19;51.72;100446.38;5004730;27;97865;-59
2020/12/15 01:05:03;;;;;;;7.32;6.63;;;;;;;14.19;51.57;100449.06;5001905;27;116475;-58
2020/12/15 01:07:29;;;;;;;6.82;6.22;;;;;;;14.21;51.69;100448.78;5004077;27;112560;-59
2020/12/15 01:09:55;;;;;;;6.60;6.00;;;;;;;14.19;51.31;100437.44;5013325;27;128186;-59
2020/12/15 01:12:21;;;;;;;6.88;6.00;;;;;;;14.20;51.41;100444.47;5023326;27;101449;-58
2020/12/15 01:14:47;;;;;;;7.18;6.30;;;;;;;14.17;51.41;100436.91;5023599;27;117939;-59
2020/12/15 01:17:15;;;;;;;6.65;5.97;;;;;;;14.18;51.42;100433.88;5021931;27;127916;-61
2020/12/15 01:19:41;;;;;;;7.05;6.35;;;;;;;14.17;51.43;100431.47;5005255;27;99214;-59
2020/12/15 01:22:07;;;;;;;7.20;6.50;;;;;;;14.18;51.32;100436.59;5022312;27;104852;-59
2020/12/15 01:24:33;;;;;;;6.70;6.00;;;;;;;14.21;51.64;100440.63;5007878;27;116468;-59
2020/12/15 01:27:00;;;;;;;6.90;6.20;;;;;;;14.20;51.89;100449.88;5004448;27;98327;-57
2020/12/15 01:29:26;;;;;;;6.80;6.10;;;;;;;14.18;51.58;100436.59;5003960;27;98067;-59
2020/12/15 01:31:52;;;;;;;6.38;5.78;;;;;;;14.20;51.33;100444.47;5001639;27;98048;-59
2020/12/15 01:34:19;;;;;;;6.65;5.95;;;;;;;14.19;51.85;100437.44;5003595;27;117493;-59
2020/12/15 01:36:45;;;;;;;6.85;6.25;;;;;;;14.20;51.53;100441.75;5004046;27;98298;-57
2020/12/15 01:39:11;;;;;;;6.63;5.93;;;;;;;14.19;51.17;100440.13;5003452;27;117186;-58
2020/12/15 01:41:37;;;;;;;6.90;6.20;;;;;;;14.18;51.43;100441.22;5003592;27;113727;-58
2020/12/15 01:44:04;;;;;;;6.75;6.03;;;;;;;14.14;51.09;100432.84;5001588;27;117726;-59
2020/12/15 01:46:31;;;;;;;6.90;6.15;;;;;;;14.16;51.39;100429.88;5001992;27;98433;-58
2020/12/15 01:48:57;;;;;;;6.68;5.78;;;;;;;14.17;51.42;100431.47;5013963;27;98575;-58
2020/12/15 01:51:24;;;;;;;6.30;5.70;;;;;;;14.15;51.00;100431.78;5014628;27;98118;-59
2020/12/15 01:53:54;;;;;;;7.05;6.05;;;;;;;14.15;51.35;100429.06;5004217;27;97813;-61
2020/12/15 01:56:21;;;;;;;6.80;6.07;;;;;;;14.15;51.20;100439.13;4985348;27;98672;-57
2020/12/15 01:58:53;;;;;;;6.80;6.07;;;;;;;14.13;50.94;100433.16;5003516;27;98586;-58
2020/12/15 02:01:19;;;;;;;7.00;6.30;;;;;;;14.15;51.30;100423.66;4985973;27;97756;-59
2020/12/15 02:03:45;;;;;;;6.07;5.43;;;;;;;14.14;51.37;100422.00;5003727;27;97949;-59
2020/12/15 02:06:11;;;;;;;7.13;6.00;;;;;;;14.14;51.14;100418.50;5003010;27;98667;-57
2020/12/15 02:08:38;;;;;;;6.35;5.75;;;;;;;14.14;51.40;100419.31;5002555;27;128382;-59
2020/12/15 02:11:04;;;;;;;6.65;5.95;;;;;;;14.14;51.29;100415.78;5018467;27;126151;-59
2020/12/15 02:13:30;;;;;;;6.40;5.80;;;;;;;14.13;51.07;100408.75;4988980;27;97694;-59
2020/12/15 02:15:56;;;;;;;6.97;6.28;;;;;;;14.17;51.06;100409.78;5003793;27;128969;-58
2020/12/15 02:18:22;;;;;;;6.88;6.18;;;;;;;14.12;51.30;100410.69;5020348;27;127083;-59
2020/12/15 02:20:48;;;;;;;7.03;6.32;;;;;;;14.15;50.84;100414.72;5002837;27;127096;-59
2020/12/15 02:23:14;;;;;;;7.90;6.13;;;;;;;14.13;51.20;100411.47;5002085;27;119176;-59
2020/12/15 02:25:40;;;;;;;7.07;6.05;;;;;;;14.14;51.05;100404.94;5003011;27;127721;-57
2020/12/15 02:28:06;;;;;;;6.97;6.30;;;;;;;14.15;51.17;100401.16;5001969;27;127682;-58
2020/12/15 02:30:32;;;;;;;6.47;5.88;;;;;;;14.16;51.08;100397.34;5000796;27;97953;-59
2020/12/15 02:32:58;;;;;;;6.88;6.18;;;;;;;14.14;51.24;100397.63;5002979;27;99391;-58
2020/12/15 02:35:24;;;;;;;7.18;6.47;;;;;;;14.16;50.76;100394.63;5003430;27;98333;-59
2020/12/15 02:37:50;;;;;;;7.50;6.45;;;;;;;14.11;50.70;100390.09;5002514;27;129200;-58
2020/12/15 02:40:16;;;;;;;7.78;6.72;;;;;;;14.10;50.75;100391.16;5001715;27;128627;-58
2020/12/15 02:42:42;;;;;;;7.43;6.72;;;;;;;14.08;50.76;100398.81;5002342;27;117152;-59
2020/12/15 02:45:08;;;;;;;7.45;6.63;;;;;;;14.06;50.63;100402.91;5002102;27;127784;-59
2020/12/15 02:47:34;;;;;;;7.47;6.75;;;;;;;14.06;50.55;100403.69;5011839;27;127995;-58
2020/12/15 02:50:00;;;;;;;7.40;6.60;;;;;;;14.04;50.60;100394.28;5023376;27;101617;-58
2020/12/15 02:52:26;;;;;;;7.43;6.72;;;;;;;14.07;50.70;100404.50;5021198;27;98081;-58
2020/12/15 02:54:53;;;;;;;8.60;6.93;;;;;;;14.04;50.60;100405.91;5022374;27;128129;-57
2020/12/15 02:57:19;;;;;;;7.38;6.63;;;;;;;14.05;50.89;100412.13;5023033;27;115776;-58
2020/12/15 02:59:45;;;;;;;7.65;6.80;;;;;;;14.02;51.02;100421.63;5021990;27;127573;-59
2020/12/15 03:02:11;;;;;;;7.60;6.80;;;;;;;14.06;50.87;100416.44;5023887;27;97969;-59
2020/12/15 03:04:37;;;;;;;7.30;6.60;;;;;;;14.04;51.24;100421.38;5021324;27;98402;-59
2020/12/15 03:07:04;;;;;;;7.45;6.75;;;;;;;14.03;50.95;100417.03;5022087;27;127916;-58
2020/12/15 03:09:31;;;;;;;7.75;6.95;;;;;;;14.02;50.99;100412.72;5021095;27;127587;-59
2020/12/15 03:11:58;;;;;;;7.53;6.72;;;;;;;14.05;51.22;100409.41;5003982;27;107973;-59
2020/12/15 03:14:24;;;;;;;7.30;6.47;;;;;;;14.06;51.16;100411.03;5022055;27;110479;-58
2020/12/15 03:16:50;;;;;;;8.00;6.97;;;;;;;14.03;51.17;100403.47;5002964;27;119178;-58
2020/12/15 03:19:16;;;;;;;7.88;7.03;;;;;;;14.04;51.15;100410.53;5001312;27;127479;-59
2020/12/15 03:21:42;;;;;;;7.35;6.65;;;;;;;14.02;50.92;100412.72;4999941;27;117211;-58
2020/12/15 03:24:08;;;;;;;7.82;6.78;;;;;;;14.02;50.91;100404.56;5003779;27;127518;-57
2020/12/15 03:26:34;;;;;;;8.13;7.00;;;;;;;14.02;51.18;100407.28;5005780;27;99362;-58
2020/12/15 03:29:00;;;;;;;8.40;7.07;;;;;;;14.00;51.12;100405.69;5004720;27;127708;-59
2020/12/15 03:31:26;;;;;;;8.10;7.30;;;;;;;14.00;51.21;100404.88;5004823;27;117661;-59
2020/12/15 03:33:52;;;;;;;7.85;6.97;;;;;;;13.99;51.08;100400.56;5004181;27;127107;-59
2020/12/15 03:36:18;;;;;;;7.93;7.13;;;;;;;13.99;50.98;100392.44;5005637;27;98514;-58
2020/12/15 03:38:44;;;;;;;7.68;6.95;;;;;;;13.97;51.32;100400.84;5025910;27;112947;-58
2020/12/15 03:41:11;;;;;;;8.10;7.30;;;;;;;13.94;51.22;100396.00;5026464;27;97807;-57
2020/12/15 03:43:37;;;;;;;7.35;6.57;;;;;;;13.94;51.14;100396.00;5013124;27;127845;-58
2020/12/15 03:46:03;;;;;;;7.68;6.88;;;;;;;13.92;51.33;100397.41;5005702;27;98529;-59
2020/12/15 03:48:29;;;;;;;8.10;7.25;;;;;;;13.90;51.16;100399.59;5004881;27;98124;-59
2020/12/15 03:50:55;;;;;;;7.70;6.75;;;;;;;13.90;51.19;100392.25;5004157;27;116788;-58
2020/12/15 03:53:22;;;;;;;7.20;6.50;;;;;;;13.89;51.57;100393.38;5005263;27;98420;-59
2020/12/15 03:55:48;;;;;;;8.00;7.20;;;;;;;13.89;51.24;100398.78;5003188;27;98902;-58
2020/12/15 03:58:17;;;;;;;7.85;7.03;;;;;;;13.87;51.50;100395.56;5004133;27;127774;-59
2020/12/15 04:00:44;;;;;;;7.72;6.60;;;;;;;13.90;51.39;100411.22;4985887;27;119407;-58
2020/12/15 04:03:10;;;;;;;8.88;7.07;;;;;;;13.89;51.47;100406.91;5004194;27;125365;-59
2020/12/15 04:05:36;;;;;;;9.15;7.20;;;;;;;13.91;51.31;100414.72;5004503;27;127545;-59
2020/12/15 04:08:03;;;;;;;7.80;6.97;;;;;;;13.91;51.16;100418.28;5017513;27;116170;-59
2020/12/15 04:10:29;;;;;;;9.38;7.38;;;;;;;13.90;51.21;100422.06;5022320;27;108462;-59
2020/12/15 04:12:55;;;;;;;7.95;7.15;;;;;;;13.90;51.43;100415.84;5004565;27;120164;-59
2020/12/15 04:15:22;;;;;;;7.43;6.68;;;;;;;13.90;51.02;100416.63;5005043;27;105096;-58
2020/12/15 04:17:48;;;;;;;8.23;7.38;;;;;;;13.94;51.07;100420.38;5004654;27;117666;-58
2020/12/15 04:20:14;;;;;;;8.18;7.38;;;;;;;13.91;51.14;100429.13;5005297;27;97802;-59
2020/12/15 04:22:40;;;;;;;7.75;6.95;;;;;;;13.90;51.17;100424.78;5004548;27;98543;-59
2020/12/15 04:25:06;;;;;;;7.93;7.13;;;;;;;13.90;51.10;100441.03;5007084;27;105495;-59
2020/12/15 04:27:32;;;;;;;8.25;6.90;;;;;;;13.89;51.20;100436.72;5024689;27;125727;-59
2020/12/15 04:29:58;;;;;;;7.75;6.97;;;;;;;13.88;51.32;100437.00;5024802;27;98166;-59
2020/12/15 04:32:25;;;;;;;8.00;7.18;;;;;;;13.89;51.02;100444.84;5020294;27;116547;-59
2020/12/15 04:34:51;;;;;;;8.10;7.30;;;;;;;13.87;51.05;100432.66;5002002;27;128728;-58
2020/12/15 04:37:17;;;;;;;8.55;7.03;;;;;;;13.86;51.19;100428.34;5004484;27;114274;-59
2020/12/15 04:39:44;;;;;;;7.95;7.10;;;;;;;13.85;51.36;100437.59;5005580;27;97678;-59
2020/12/15 04:42:10;;;;;;;9.75;7.60;;;;;;;13.84;51.07;100439.50;5003824;27;128906;-59
2020/12/15 04:44:36;;;;;;;7.70;6.90;;;;;;;13.86;51.14;100431.88;5004372;27;98633;-59
2020/12/15 04:47:29;;;;;;;8.13;7.03;;;;;;;13.83;51.11;100423.50;4977130;27;98224;-58
2020/12/15 04:50:01;;;;;;;8.65;7.40;;;;;;;13.82;51.18;100430.03;4988869;27;109281;-58
2020/12/15 04:52:44;;;;;;;7.93;7.13;;;;;;;13.81;51.17;100421.09;5004192;27;99011;-59
2020/12/15 04:55:10;;;;;;;8.18;7.15;;;;;;;13.83;50.86;100418.91;5003977;27;99080;-59
2020/12/15 04:57:41;;;;;;;8.00;7.15;;;;;;;13.84;50.89;100420.53;5002220;27;110389;-58
2020/12/15 05:00:08;;;;;;;9.43;7.82;;;;;;;13.84;50.76;100425.16;5006648;27;99598;-59
2020/12/15 05:02:42;;;;;;;8.52;7.65;;;;;;;13.84;50.91;100419.72;5024586;27;97852;-59
2020/12/15 05:05:09;;;;;;;7.90;7.10;;;;;;;13.83;51.04;100416.19;5022915;27;108971;-58
2020/12/15 05:07:44;;;;;;;7.93;7.10;;;;;;;13.82;51.14;100427.31;5022788;27;98173;-57
2020/12/15 05:10:13;;;;;;;8.68;7.13;;;;;;;13.85;50.99;100430.25;5024507;27;97990;-58
2020/12/15 05:12:42;;;;;;;8.88;7.30;;;;;;;13.85;50.86;100430.25;5002796;27;99982;-57
2020/12/15 05:15:13;;;;;;;7.97;7.18;;;;;;;13.82;50.92;100433.53;5003658;27;117032;-58
2020/12/15 05:17:39;;;;;;;8.80;7.57;;;;;;;13.86;50.96;100431.06;5004905;27;98668;-58
2020/12/15 05:20:09;;;;;;;8.18;6.97;;;;;;;13.84;50.92;100435.97;5013088;27;97922;-57
2020/12/15 05:22:43;;;;;;;7.78;6.97;;;;;;;13.84;50.88;100433.28;5024357;27;98503;-57
2020/12/15 05:25:38;;;;;;;8.00;7.15;;;;;;;13.86;50.82;100442.69;5024874;27;98648;-59
2020/12/15 05:28:13;;;;;;;8.95;7.38;;;;;;;13.84;50.92;100431.38;5008399;27;97817;-58
2020/12/15 05:30:39;;;;;;;8.35;7.43;;;;;;;13.86;50.67;100431.06;5005089;27;97916;-59
2020/12/15 05:33:13;;;;;;;8.50;7.18;;;;;;;13.86;50.78;100439.19;5002686;27;129523;-59
2020/12/15 05:35:39;;;;;;;7.40;6.57;;;;;;;13.88;50.75;100432.41;5004255;27;114039;-59
2020/12/15 05:38:06;;;;;;;8.30;6.97;;;;;;;13.89;51.03;100436.72;4984367;27;127414;-59
2020/12/15 05:40:33;;;;;;;8.25;7.35;;;;;;;13.89;51.03;100444.84;4985181;27;98084;-59
2020/12/15 05:43:01;;;;;;;7.47;6.70;;;;;;;13.88;50.83;100431.59;5006711;27;98896;-57
2020/12/15 05:45:27;;;;;;;7.78;6.97;;;;;;;13.90;50.83;100440.22;5023663;27;104853;-59
2020/12/15 05:48:04;;;;;;;9.05;7.32;;;;;;;13.86;50.73;100441.91;5023996;27;97877;-58
2020/12/15 05:50:30;;;;;;;8.80;7.28;;;;;;;13.92;50.86;100427.22;5023046;27;106448;-59
2020/12/15 05:53:04;;;;;;;9.15;7.40;;;;;;;13.89;50.95;100425.06;5012685;27;117976;-57
2020/12/15 05:55:30;;;;;;;7.90;7.07;;;;;;;13.90;50.81;100423.97;4981110;27;100931;-58
2020/12/15 05:57:56;;;;;;;7.65;6.80;;;;;;;13.89;50.94;100425.88;4998497;27;112385;-57
2020/12/15 06:00:29;;;;;;;7.97;7.18;;;;;;;13.87;50.83;100424.53;5004152;27;97864;-58
2020/12/15 06:03:06;;;;;;;8.70;7.63;;;;;;;13.83;50.71;100415.38;5024169;27;98694;-59
2020/12/15 06:05:34;;;;;;;8.57;7.45;;;;;;;13.87;50.81;100421.84;5023178;27;105034;-58
2020/12/15 06:08:05;;;;;;;8.23;7.00;;;;;;;13.85;50.79;100414.00;5017616;27;117302;-61
2020/12/15 06:10:31;;;;;;;9.05;7.75;;;;;;;13.84;50.61;100412.41;5023874;27;97852;-58
2020/12/15 06:12:59;;;;;;;9.07;8.00;;;;;;;13.88;50.88;100424.28;5023073;27;98957;-58
2020/12/15 06:15:25;;;;;;;8.52;7.50;;;;;;;13.86;50.85;100422.94;5004903;27;99434;-59
2020/12/15 06:18:00;;;;;;;9.50;7.70;;;;;;;13.84;50.79;100425.94;5011652;27;98039;-59
2020/12/15 06:20:36;;;;;;;9.60;7.97;;;;;;;13.81;50.54;100414.88;4988489;27;97933;-59
2020/12/15 06:23:03;;;;;;;8.85;7.72;;;;;;;13.84;50.82;100419.72;5016019;27;101132;-57
2020/12/15 06:25:33;;;;;;;9.93;7.63;;;;;;;13.83;50.60;100421.59;5003274;27;111436;-59
2020/12/15 06:28:10;;;;;;;8.65;7.65;;;;;;;13.81;50.70;100425.72;5010432;27;98153;-58
2020/12/15 06:30:41;;;;;;;8.85;7.47;;;;;;;13.84;50.51;100425.94;4986720;27;106564;-59
2020/12/15 06:33:12;;;;;;;7.97;7.13;;;;;;;13.83;50.63;100424.31;5013480;27;118594;-59
2020/12/15 06:35:38;;;;;;;9.55;7.82;;;;;;;13.85;50.67;100426.75;5002754;27;110555;-57
2020/12/15 06:38:06;;;;;;;7.95;6.95;;;;;;;13.88;50.21;100421.56;5017654;27;97964;-58
2020/12/15 06:40:43;;;;;;;8.82;7.45;;;;;;;13.89;50.41;100433.19;5023561;27;98432;-59
2020/12/15 06:43:09;;;;;;;8.52;7.18;;;;;;;13.93;50.42;100434.22;5007275;27;98895;-59
2020/12/15 06:45:35;;;;;;;8.75;7.47;;;;;;;13.92;50.27;100430.72;5001623;27;125306;-57
2020/12/15 06:48:05;;;;;;;8.77;6.68;;;;;;;13.90;50.12;100427.47;5001736;27;106907;-58
2020/12/15 06:50:45;;;;;;;9.55;7.65;;;;;;;13.91;50.31;100420.16;5008469;27;97849;-57
2020/12/15 06:53:13;;;;;;;7.80;7.00;;;;;;;13.92;50.03;100427.22;5021842;27;98391;-57
2020/12/15 06:55:40;;;;;;;8.38;7.32;;;;;;;13.92;50.10;100427.22;5023490;27;99049;-59
2020/12/15 06:58:06;;;;;;;8.15;7.28;;;;;;;13.94;50.13;100425.00;5020012;27;98615;-59
2020/12/15 07:00:42;;;;;;;8.45;7.00;;;;;;;13.92;50.26;100429.91;5023910;27;97924;-59
2020/12/15 07:03:08;;;;;;;7.72;6.90;;;;;;;13.93;50.14;100435.03;5004090;27;99109;-57
2020/12/15 07:05:38;;;;;;;8.27;6.85;;;;;;;13.93;49.89;100437.75;5005050;27;98155;-57
2020/12/15 07:08:08;;;;;;;8.85;7.03;;;;;;;13.92;50.39;100436.13;5024514;27;97966;-58
2020/12/15 07:10:39;;;;;;;7.88;7.05;;;;;;;13.95;50.15;100440.16;5023975;27;98094;-58
2020/12/15 07:13:05;;;;;;;8.40;7.15;;;;;;;13.94;50.19;100433.94;4994927;27;99157;-59
2020/12/15 07:15:33;;;;;;;8.50;7.32;;;;;;;13.96;50.04;100437.16;5003563;27;114087;-59
2020/12/15 07:18:00;;;;;;;9.20;7.72;;;;;;;13.97;50.27;100441.47;5003051;27;115663;-59
2020/12/15 07:20:26;;;;;;;8.75;7.50;;;;;;;13.99;50.11;100443.94;4984605;27;98104;-59
2020/12/15 07:22:52;;;;;;;9.10;7.93;;;;;;;14.00;49.95;100448.25;5002803;27;98353;-59
2020/12/15 07:25:20;;;;;;;9.50;7.80;;;;;;;14.02;49.87;100453.34;5003577;27;99247;-58
2020/12/15 07:27:47;;;;;;;9.30;7.68;;;;;;;14.03;50.44;100444.97;5004259;27;98351;-59
2020/12/15 07:30:15;;;;;;;9.35;8.18;;;;;;;14.03;49.82;100446.84;5004118;27;97788;-59
2020/12/15 07:32:41;;;;;;;9.07;7.78;;;;;;;14.06;50.14;100438.94;5001906;27;120241;-61
2020/12/15 07:35:10;;;;;;;9.70;8.05;;;;;;;14.08;50.15;100430.53;5001892;27;97745;-58
2020/12/15 07:37:43;;;;;;;9.23;7.95;;;;;;;14.10;50.05;100433.75;5003427;27;97810;-59
2020/12/15 07:40:10;;;;;;;;;;;;;;;14.06;50.28;100432.72;5002649;27;97960;-57
2020/12/15 07:42:36;;;;;;;8.63;7.72;;;;;;;14.11;50.24;100433.47;5002622;27;110379;-57
2020/12/15 07:45:10;;;;;;;8.52;7.63;;;;;;;14.16;50.17;100438.81;5001685;27;121010;-59
2020/12/15 07:47:43;;;;;;;9.70;7.95;;;;;;;14.27;50.15;100442.19;4982739;27;115628;-57
2020/12/15 07:50:10;;;;;;;8.35;7.53;;;;;;;14.33;50.00;100432.88;5001937;27;118780;-58
2020/12/15 07:52:38;;;;;;;9.10;7.38;;;;;;;14.37;50.24;100430.38;5002344;27;99180;-59
2020/12/15 07:55:12;;;;;;;8.68;7.53;;;;;;;14.40;50.34;100425.19;5003285;27;98849;-60
2020/12/15 07:57:40;;;;;;;8.93;7.63;;;;;;;14.42;49.96;100431.13;5002748;27;98356;-58
2020/12/15 08:00:21;;;;;;;8.05;6.80;;;;;;;14.42;50.41;100433.84;5004259;27;97817;-59
2020/12/15 08:02:47;;;;;;;9.05;7.55;;;;;;;14.45;50.77;100441.38;5003016;27;98620;-59
2020/12/15 08:05:15;;;;;;;8.25;7.43;;;;;;;14.43;50.87;100446.31;5000203;27;98562;-58
2020/12/15 08:07:58;;;;;;;9.38;7.57;;;;;;;14.39;50.63;100445.28;5002563;27;97923;-59
2020/12/15 08:10:33;;;;;;;8.85;7.85;;;;;;;14.39;51.24;100439.84;5002588;27;98068;-59
2020/12/15 08:13:04;;;;;;;9.10;7.50;;;;;;;14.41;51.42;100434.13;5003062;27;99054;-59
2020/12/15 08:15:37;;;;;;;9.32;7.63;;;;;;;14.40;51.41;100436.03;5000585;27;120177;-58
2020/12/15 08:18:06;;;;;;;8.30;7.13;;;;;;;14.41;51.77;100439.53;5002941;27;98535;-58
2020/12/15 08:20:32;;;;;;;8.30;7.35;;;;;;;14.41;51.62;100440.34;5017424;27;106869;-59
2020/12/15 08:23:14;;;;;;;8.65;7.55;;;;;;;14.42;51.90;100441.97;4987569;27;127054;-58
2020/12/15 08:25:44;;;;;;;;;;;;;;;14.41;51.62;100434.13;5002933;27;112795;-59
2020/12/15 08:28:21;;;;;;;7.85;7.03;;;;;;;14.47;51.82;100432.97;5002838;27;97907;-58
2020/12/15 08:30:47;;;;;;;8.30;7.32;;;;;;;14.53;52.04;100428.28;5007524;27;97810;-59
2020/12/15 08:33:30;;;;;;;8.45;7.10;;;;;;;14.54;52.18;100425.31;5001474;27;104039;-58
2020/12/15 08:35:57;;;;;;;8.80;7.53;;;;;;;14.58;52.29;100433.63;5001593;27;98409;-57
2020/12/15 08:38:25;;;;;;;7.70;6.82;;;;;;;14.60;51.77;100418.69;5001676;27;98486;-58
2020/12/15 08:41:00;;;;;;;10.15;7.60;;;;;;;14.58;52.00;100423.59;5002590;27;97836;-58
2020/12/15 08:43:27;;;;;;;7.65;6.72;;;;;;;14.63;52.26;100423.53;5002741;27;98500;-59
2020/12/15 08:45:53;;;;;;;8.68;7.20;;;;;;;14.64;52.08;100440.59;5002510;27;114248;-57
2020/12/15 08:48:22;;;;;;;8.00;6.75;;;;;;;14.66;52.08;100438.41;5018948;27;97889;-59
2020/12/15 08:50:48;;;;;;;8.07;6.72;;;;;;;14.66;52.18;100447.34;5010246;27;97948;-59
2020/12/15 08:53:15;;;;;;;8.25;7.20;;;;;;;14.69;52.29;100435.88;5002187;27;98960;-59
2020/12/15 08:55:45;;;;;;;8.40;7.20;;;;;;;14.69;52.37;100443.22;5001698;27;99062;-59
2020/12/15 08:58:11;;;;;;;8.20;6.60;;;;;;;14.68;52.42;100422.63;5000834;27;118052;-59
2020/12/15 09:00:39;;;;;;;8.55;6.72;;;;;;;14.67;52.54;100421.81;5001997;27;97908;-59
2020/12/15 09:03:13;;;;;;;6.85;5.95;;;;;;;14.61;52.79;100419.47;5002130;27;98456;-58
2020/12/15 09:05:56;;;;;;;7.47;6.55;;;;;;;14.62;52.94;100423.78;5001628;27;107554;-59
2020/12/15 09:08:24;;;;;;;8.57;6.72;;;;;;;14.62;52.78;100415.66;5000836;27;112750;-59
2020/12/15 09:10:55;;;;;;;7.47;6.40;;;;;;;14.60;53.19;100410.53;5001540;27;97910;-57
2020/12/15 09:13:21;;;;;;;7.50;6.53;;;;;;;14.59;53.21;100389.94;5001989;27;98724;-57
2020/12/15 09:15:57;;;;;;;7.07;6.30;;;;;;;14.60;52.90;100393.47;5002247;27;97808;-60
2020/12/15 09:18:37;;;;;;;7.30;6.30;;;;;;;14.57;52.53;100402.19;5001318;27;98078;-58
2020/12/15 09:21:16;;;;;;;7.88;6.63;;;;;;;14.60;53.00;100410.53;5001775;27;97738;-57
2020/12/15 09:23:50;;;;;;;8.02;6.60;;;;;;;14.60;52.50;100407.81;5001840;27;99098;-58
2020/12/15 09:26:20;;;;;;;7.28;5.82;;;;;;;14.67;52.91;100440.00;5000043;27;98319;-58
2020/12/15 09:28:47;;;;;;;6.88;5.75;;;;;;;14.69;52.43;100430.47;5002031;27;97928;-58
2020/12/15 09:31:15;;;;;;;6.88;5.63;;;;;;;14.72;52.86;100450.78;5001788;27;97932;-59
2020/12/15 09:33:41;;;;;;;6.80;5.82;;;;;;;14.75;52.32;100439.34;5001508;27;98993;-58
2020/12/15 09:36:07;;;;;;;7.03;5.63;;;;;;;14.81;52.08;100440.06;5001670;27;98492;-60
2020/12/15 09:38:33;;;;;;;7.88;6.20;;;;;;;14.81;52.41;100427.28;5002175;27;98062;-59
2020/12/15 09:40:59;;;;;;;7.57;5.93;;;;;;;14.86;52.49;100426.44;5000822;27;118985;-59
2020/12/15 09:43:25;;;;;;;6.82;5.75;;;;;;;14.93;51.92;100437.69;5001391;27;98520;-57
2020/12/15 09:45:52;;;;;;;7.65;5.90;;;;;;;15.02;51.80;100441.34;5000156;27;128558;-58
2020/12/15 09:48:19;;;;;;;6.63;5.78;;;;;;;15.13;51.82;100433.81;5000454;27;117785;-57
2020/12/15 09:50:45;;;;;;;7.07;5.57;;;;;;;15.31;51.39;100438.38;5001958;27;98075;-58
2020/12/15 09:53:11;;;;;;;6.50;5.65;;;;;;;15.45;51.13;100424.84;5001736;27;98416;-59
2020/12/15 09:55:37;;;;;;;6.95;5.43;;;;;;;15.54;51.34;100420.31;5001097;27;109386;-58
2020/12/15 09:58:03;;;;;;;6.10;5.28;;;;;;;15.62;51.32;100425.03;5000507;27;127540;-59
2020/12/15 10:00:29;;;;;;;6.30;4.80;;;;;;;15.75;51.81;100428.06;5000930;27;116715;-57
2020/12/15 10:02:55;;;;;;;6.90;5.55;;;;;;;15.78;51.82;100427.47;4999038;27;98933;-58
2020/12/15 10:05:21;;;;;;;7.13;5.50;;;;;;;15.77;52.44;100423.97;5000679;27;117711;-58
2020/12/15 10:07:47;;;;;;;6.25;5.32;;;;;;;15.75;52.78;100434.31;5000043;27;115279;-58
2020/12/15 10:10:16;;;;;;;6.10;5.38;;;;;;;15.70;53.12;100437.16;4999999;27;118488;-58
2020/12/15 10:12:43;;;;;;;6.65;5.68;;;;;;;15.65;53.04;100442.69;5000233;27;98540;-58
2020/12/15 10:15:10;;;;;;;7.35;5.70;;;;;;;15.59;53.67;100432.97;5001389;27;97931;-59
2020/12/15 10:17:37;;;;;;;7.10;6.00;;;;;;;15.56;53.79;100422.72;5000613;27;97869;-59
2020/12/15 10:20:05;;;;;;;7.22;5.90;;;;;;;15.49;53.11;100436.72;5001279;27;97948;-58
2020/12/15 10:22:31;;;;;;;7.25;5.82;;;;;;;15.52;53.60;100429.84;4998596;27;100264;-59
2020/12/15 10:24:57;;;;;;;7.05;5.93;;;;;;;15.55;53.74;100421.09;4997908;27;117099;-61
2020/12/15 10:27:23;;;;;;;7.05;5.90;;;;;;;15.59;53.18;100427.53;5008237;27;118722;-59
2020/12/15 10:29:49;;;;;;;6.57;5.60;;;;;;;15.63;53.60;100425.84;5021051;27;119108;-58
2020/12/15 10:32:15;;;;;;;6.65;5.65;;;;;;;15.66;53.70;100428.78;5019983;27;128889;-58
2020/12/15 10:34:41;;;;;;;6.53;5.60;;;;;;;15.72;53.33;100432.22;5019229;27;98838;-59
2020/12/15 10:37:07;;;;;;;7.38;6.10;;;;;;;15.82;53.29;100428.47;5020558;27;98087;-57
2020/12/15 10:39:33;;;;;;;7.93;6.15;;;;;;;15.85;53.01;100425.97;5014220;27;117990;-57
2020/12/15 10:41:59;;;;;;;6.85;5.63;;;;;;;15.97;53.03;100428.16;5021028;27;98206;-58
2020/12/15 10:44:25;;;;;;;6.60;5.90;;;;;;;16.11;53.16;100418.09;5019410;27;99447;-58
2020/12/15 10:46:51;;;;;;;7.90;6.20;;;;;;;16.21;52.90;100411.59;5010667;27;98202;-59
2020/12/15 10:49:17;;;;;;;6.70;6.00;;;;;;;16.25;53.02;100418.03;5005135;27;116190;-59
2020/12/15 10:51:47;;;;;;;7.35;5.65;;;;;;;16.29;53.11;100400.00;5001496;27;99645;-58
2020/12/15 10:54:13;;;;;;;6.97;6.28;;;;;;;16.39;53.30;100398.97;4999067;27;99188;-58
2020/12/15 10:56:41;;;;;;;7.38;5.97;;;;;;;16.48;52.06;100394.41;5000410;27;98013;-59
2020/12/15 10:59:07;;;;;;;7.68;6.30;;;;;;;16.56;52.95;100380.06;4980908;27;106233;-58
2020/12/15 11:01:33;;;;;;;6.80;5.60;;;;;;;16.47;53.40;100371.03;4997367;27;128124;-58
2020/12/15 11:03:59;;;;;;;6.93;5.75;;;;;;;16.46;52.51;100374.84;4996917;27;126948;-59
2020/12/15 11:06:25;;;;;;;6.97;6.00;;;;;;;16.43;53.56;100375.50;4997225;27;126353;-58
2020/12/15 11:08:52;;;;;;;7.55;6.00;;;;;;;16.32;52.96;100360.50;5000295;27;97969;-58
2020/12/15 11:11:18;;;;;;;6.85;5.68;;;;;;;16.21;53.59;100365.38;4980135;27;98403;-59
2020/12/15 11:13:46;;;;;;;7.30;5.93;;;;;;;16.16;53.61;100360.06;5000104;27;98600;-60
2020/12/15 11:16:12;;;;;;;6.70;6.00;;;;;;;16.12;53.81;100349.00;5000007;27;98516;-58
2020/12/15 11:18:38;;;;;;;6.85;5.57;;;;;;;16.14;53.94;100338.59;4999385;27;107611;-58
2020/12/15 11:21:04;;;;;;;6.85;5.15;;;;;;;16.11;54.24;100346.56;4997264;27;128531;-57
2020/12/15 11:23:30;;;;;;;6.95;5.30;;;;;;;16.15;54.72;100350.28;4997701;27;128329;-59
2020/12/15 11:25:56;;;;;;;7.07;5.40;;;;;;;16.14;54.47;100356.84;4999167;27;98357;-57